Time;durP1;ratioP1;P1;durP2;ratioP2;P2;SDS_P1;SDS_P2;PMS_P1;PMS_P2;Temp;Humidity;BMP_temperature;BMP_pressure;BME280_temperature;BME280_humidity;BME280_pressure;Samples;Min_cycle;Max_cycle;Signal;HPM_P1;HPM_P2
2024/04/22 00:00:52;;;;;;;;;;;10.20;67.40;;;;;;5207186;26;85701;-44
2024/04/22 00:03:17;;;;;;;;;;;10.20;67.30;;;;;;5230447;27;84712;-44
2024/04/22 00:05:51;;;;;;;;;;;10.20;67.30;;;;;;5220396;27;85272;-43
2024/04/22 00:08:17;;;;;;;;;;;10.20;67.50;;;;;;5220756;27;85826;-44
2024/04/22 00:10:42;;;;;;;;;;;10.20;67.40;;;;;;5232704;27;86235;-43
2024/04/22 00:13:08;;;;;;;;;;;10.20;67.50;;;;;;5211155;27;86717;-43
2024/04/22 00:15:33;;;;;;;;;;;10.10;67.40;;;;;;5215554;26;87211;-45
2024/04/22 00:17:59;;;;;;;;;;;10.20;67.40;;;;;;5237390;27;85556;-45
2024/04/22 00:20:24;;;;;;;;;;;10.20;67.40;;;;;;5209473;27;87080;-44
2024/04/22 00:22:50;;;;;;;;;;;10.20;67.40;;;;;;5227013;27;85278;-44
2024/04/22 00:25:15;;;;;;;;;;;10.10;67.50;;;;;;5227069;26;85608;-45
2024/04/22 00:27:41;;;;;;;;;;;10.10;67.20;;;;;;5209165;27;85088;-43
2024/04/22 00:30:07;;;;;;;;;;;10.10;67.40;;;;;;5227430;27;85395;-43
2024/04/22 00:32:32;;;;;;;;;;;10.10;67.30;;;;;;5209761;27;85504;-44
2024/04/22 00:34:59;;;;;;;;;;;10.10;67.30;;;;;;5220249;27;86819;-44
2024/04/22 00:37:25;;;;;;;;;;;10.10;67.50;;;;;;5243256;27;85271;-44
2024/04/22 00:39:50;;;;;;;;;;;10.10;67.40;;;;;;5215197;27;85348;-44
2024/04/22 00:42:16;;;;;;;;;;;10.10;68.10;;;;;;5222536;26;85267;-43
2024/04/22 00:44:42;;;;;;;;;;;10.10;67.30;;;;;;5215255;27;85681;-43
2024/04/22 00:47:07;;;;;;;;;;;10.10;67.30;;;;;;5206285;27;86986;-43
2024/04/22 00:49:33;;;;;;;;;;;10.10;67.40;;;;;;5230646;27;85350;-44
2024/04/22 00:51:59;;;;;;;;;;;10.00;67.20;;;;;;5225658;27;86667;-43
2024/04/22 00:54:25;;;;;;;;;;;10.00;67.40;;;;;;5222097;27;87002;-44
2024/04/22 00:56:51;;;;;;;;;;;10.10;67.40;;;;;;5233433;26;85405;-45
2024/04/22 00:59:16;;;;;;;;;;;10.10;67.40;;;;;;5218988;27;86358;-44
2024/04/22 01:01:42;;;;;;;;;;;10.00;67.30;;;;;;5213640;27;85231;-43
2024/04/22 01:04:08;;;;;;;;;;;10.00;67.40;;;;;;5238251;27;86729;-43
2024/04/22 01:06:33;;;;;;;;;;;10.00;67.30;;;;;;5207052;27;87072;-44
2024/04/22 01:08:59;;;;;;;;;;;10.00;67.40;;;;;;5213757;27;85519;-45
2024/04/22 01:11:24;;;;;;;;;;;10.00;67.30;;;;;;5229938;27;85378;-45
2024/04/22 01:13:50;;;;;;;;;;;10.00;67.20;;;;;;5206343;27;85787;-43
2024/04/22 01:16:15;;;;;;;;;;;10.00;67.10;;;;;;5221793;26;85093;-44
2024/04/22 01:18:42;;;;;;;;;;;10.00;67.40;;;;;;5229679;26;85295;-43
2024/04/22 01:21:08;;;;;;;;;;;10.00;67.20;;;;;;5208452;26;87292;-43
2024/04/22 01:23:34;;;;;;;;;;;10.00;67.20;;;;;;5231862;26;86602;-44
2024/04/22 01:26:02;;;;;;;;;;;10.00;67.20;;;;;;5208989;27;87006;-44
2024/04/22 01:28:28;;;;;;;;;;;10.00;67.10;;;;;;5212317;27;85879;-43
2024/04/22 01:30:53;;;;;;;;;;;10.00;67.20;;;;;;5228371;26;86501;-45
2024/04/22 01:33:19;;;;;;;;;;;10.00;67.30;;;;;;5214365;27;86979;-43
2024/04/22 01:35:44;;;;;;;;;;;9.90;67.30;;;;;;5220696;27;86825;-43
2024/04/22 01:38:10;;;;;;;;;;;9.90;67.40;;;;;;5222259;27;85272;-43
2024/04/22 01:40:35;;;;;;;;;;;9.90;67.30;;;;;;5209717;27;85437;-43
2024/04/22 01:43:01;;;;;;;;;;;9.90;67.30;;;;;;5226912;26;85570;-45
2024/04/22 01:45:26;;;;;;;;;;;9.90;67.10;;;;;;5217152;27;85840;-44
2024/04/22 01:47:52;;;;;;;;;;;9.90;67.20;;;;;;5218299;26;86291;-43
2024/04/22 01:50:18;;;;;;;;;;;9.90;67.30;;;;;;5238288;27;86145;-45
2024/04/22 01:52:43;;;;;;;;;;;9.90;67.40;;;;;;5223011;27;85696;-43
2024/04/22 01:55:09;;;;;;;;;;;9.90;67.40;;;;;;5219096;27;85704;-43
2024/04/22 01:57:34;;;;;;;;;;;9.90;67.30;;;;;;5222981;27;86170;-43
2024/04/22 02:00:00;;;;;;;;;;;9.90;67.50;;;;;;5211192;27;86870;-45
2024/04/22 02:02:25;;;;;;;;;;;9.90;67.40;;;;;;5218203;27;85273;-45
2024/04/22 02:04:51;;;;;;;;;;;9.90;67.20;;;;;;5224458;27;86628;-43
2024/04/22 02:07:16;;;;;;;;;;;9.90;67.20;;;;;;5203481;27;85524;-44
2024/04/22 02:09:42;;;;;;;;;;;9.80;67.50;;;;;;5220799;27;86050;-44
2024/04/22 02:12:07;;;;;;;;;;;9.90;67.30;;;;;;5225411;27;86972;-43
2024/04/22 02:14:35;;;;;;;;;;;9.90;67.20;;;;;;5208246;27;85253;-44
2024/04/22 02:17:01;;;;;;;;;;;9.80;67.20;;;;;;5234977;26;86594;-44
2024/04/22 02:19:27;;;;;;;;;;;9.80;67.20;;;;;;5217389;27;85870;-44
2024/04/22 02:21:52;;;;;;;;;;;9.80;67.30;;;;;;5212141;27;85259;-45
2024/04/22 02:24:18;;;;;;;;;;;9.80;67.40;;;;;;5238422;26;85172;-43
2024/04/22 02:26:44;;;;;;;;;;;9.80;67.30;;;;;;5205248;27;87496;-43
2024/04/22 02:29:09;;;;;;;;;;;9.80;67.40;;;;;;5224531;27;86765;-45
2024/04/22 02:31:35;;;;;;;;;;;9.80;67.40;;;;;;5214139;27;86904;-42
2024/04/22 02:34:00;;;;;;;;;;;9.80;67.30;;;;;;5209873;27;85218;-44
2024/04/22 02:36:26;;;;;;;;;;;9.70;67.10;;;;;;5223550;27;86169;-43
2024/04/22 02:38:51;;;;;;;;;;;9.80;67.20;;;;;;5210615;26;87356;-43
2024/04/22 02:41:17;;;;;;;;;;;9.80;67.40;;;;;;5207939;27;85375;-42
2024/04/22 02:43:42;;;;;;;;;;;9.70;67.20;;;;;;5233765;27;85378;-44
2024/04/22 02:46:08;;;;;;;;;;;9.70;67.20;;;;;;5217168;27;87075;-43
2024/04/22 02:48:33;;;;;;;;;;;9.70;67.30;;;;;;5229691;27;85375;-43
2024/04/22 02:51:02;;;;;;;;;;;9.80;67.40;;;;;;5232129;26;87287;-44
2024/04/22 02:53:28;;;;;;;;;;;9.80;67.30;;;;;;5237104;26;84775;-44
2024/04/22 02:55:53;;;;;;;;;;;9.70;67.20;;;;;;5251413;26;85280;-42
2024/04/22 02:58:19;;;;;;;;;;;9.70;67.20;;;;;;5259692;26;87050;-43
2024/04/22 03:00:46;;;;;;;;;;;9.70;67.30;;;;;;5235265;26;86238;-43
2024/04/22 03:03:12;;;;;;;;;;;9.70;67.90;;;;;;5263575;26;87754;-44
2024/04/22 03:05:37;;;;;;;;;;;9.70;67.60;;;;;;5249111;26;85821;-45
2024/04/22 03:08:03;;;;;;;;;;;9.70;67.30;;;;;;5245004;26;85344;-43
2024/04/22 03:10:28;;;;;;;;;;;9.70;67.40;;;;;;5251099;26;86297;-45
2024/04/22 03:12:54;;;;;;;;;;;9.60;67.40;;;;;;5243211;26;86395;-45
2024/04/22 03:15:20;;;;;;;;;;;9.60;67.40;;;;;;5248107;26;86119;-43
2024/04/22 03:17:46;;;;;;;;;;;9.60;67.40;;;;;;5256641;26;85711;-45
2024/04/22 03:20:11;;;;;;;;;;;9.70;67.40;;;;;;5247251;26;85927;-44
2024/04/22 03:22:37;;;;;;;;;;;9.70;67.40;;;;;;5250553;26;85221;-43
2024/04/22 03:25:05;;;;;;;;;;;9.60;67.60;;;;;;5265475;26;86563;-45
2024/04/22 03:27:30;;;;;;;;;;;9.60;67.20;;;;;;5251520;26;85302;-44
2024/04/22 03:29:56;;;;;;;;;;;9.60;67.50;;;;;;5257656;26;86607;-44
2024/04/22 03:32:21;;;;;;;;;;;9.60;67.40;;;;;;5250597;26;85261;-42
2024/04/22 03:34:47;;;;;;;;;;;9.60;67.40;;;;;;5257087;26;85743;-44
2024/04/22 03:37:12;;;;;;;;;;;9.60;67.40;;;;;;5259924;26;87013;-44
2024/04/22 03:39:38;;;;;;;;;;;9.60;67.40;;;;;;5246300;26;85717;-42
2024/04/22 03:42:04;;;;;;;;;;;9.60;67.50;;;;;;5250474;26;86656;-44
2024/04/22 03:44:29;;;;;;;;;;;9.60;67.20;;;;;;5254696;26;86964;-45
2024/04/22 03:49:51;;;;;;;;;;;9.60;67.30;;;;;;5249199;26;86067;-44
2024/04/22 03:52:18;;;;;;;;;;;9.50;67.40;;;;;;5247921;26;85679;-43
2024/04/22 03:54:43;;;;;;;;;;;9.50;67.70;;;;;;5250451;26;86615;-44
2024/04/22 03:57:09;;;;;;;;;;;9.50;67.40;;;;;;5243830;26;86197;-43
2024/04/22 03:59:34;;;;;;;;;;;9.50;67.30;;;;;;5260396;26;85472;-43
2024/04/22 04:02:00;;;;;;;;;;;9.50;67.10;;;;;;5249270;26;86484;-43
2024/04/22 04:04:25;;;;;;;;;;;9.50;67.30;;;;;;5249827;26;86084;-44
2024/04/22 04:06:51;;;;;;;;;;;9.50;67.40;;;;;;5240689;26;84623;-43
2024/04/22 04:09:16;;;;;;;;;;;9.50;67.20;;;;;;5258023;26;85874;-44
2024/04/22 04:11:42;;;;;;;;;;;9.50;67.30;;;;;;5262955;26;85712;-44
2024/04/22 04:14:08;;;;;;;;;;;9.50;67.50;;;;;;5246747;26;88287;-45
2024/04/22 04:16:33;;;;;;;;;;;9.50;67.30;;;;;;5249375;26;86815;-43
2024/04/22 04:18:59;;;;;;;;;;;9.50;67.60;;;;;;5255678;26;85444;-44
2024/04/22 04:21:25;;;;;;;;;;;9.50;67.40;;;;;;5238091;26;86912;-43
2024/04/22 04:23:50;;;;;;;;;;;9.50;67.20;;;;;;5251895;26;85977;-44
2024/04/22 04:26:16;;;;;;;;;;;9.50;67.50;;;;;;5237759;26;85252;-43
2024/04/22 04:28:41;;;;;;;;;;;9.50;67.30;;;;;;5252402;26;86528;-42
2024/04/22 04:31:07;;;;;;;;;;;9.50;67.20;;;;;;5259033;26;85246;-44
2024/04/22 04:33:33;;;;;;;;;;;9.40;67.40;;;;;;5246336;26;86781;-44
2024/04/22 04:36:05;;;;;;;;;;;9.40;67.20;;;;;;5255805;26;85794;-44
2024/04/22 04:38:31;;;;;;;;;;;9.40;67.30;;;;;;5260793;26;86910;-45
2024/04/22 04:40:57;;;;;;;;;;;9.40;67.30;;;;;;5239325;26;88055;-43
2024/04/22 04:43:22;;;;;;;;;;;9.40;67.20;;;;;;5249678;26;87475;-44
2024/04/22 04:45:49;;;;;;;;;;;9.40;67.20;;;;;;5244062;26;85734;-44
2024/04/22 04:48:14;;;;;;;;;;;9.40;67.40;;;;;;5253320;26;85510;-44
2024/04/22 04:50:40;;;;;;;;;;;9.40;67.00;;;;;;5270535;26;85643;-43
2024/04/22 04:53:05;;;;;;;;;;;9.40;67.40;;;;;;5249152;26;85816;-43
2024/04/22 04:55:31;;;;;;;;;;;9.40;67.50;;;;;;5246046;26;86495;-43
2024/04/22 04:57:57;;;;;;;;;;;9.40;67.10;;;;;;5255902;26;85503;-44
2024/04/22 05:00:22;;;;;;;;;;;9.40;67.70;;;;;;5246384;26;86892;-44
2024/04/22 05:02:48;;;;;;;;;;;9.40;67.50;;;;;;5253125;26;88263;-43
2024/04/22 05:05:13;;;;;;;;;;;9.40;67.40;;;;;;5258385;26;85692;-44
2024/04/22 05:07:39;;;;;;;;;;;9.40;67.30;;;;;;5246619;26;85342;-43
2024/04/22 05:10:05;;;;;;;;;;;9.40;67.10;;;;;;5251984;26;87224;-42
2024/04/22 05:12:31;;;;;;;;;;;9.40;67.20;;;;;;5248185;26;86098;-43
2024/04/22 05:14:56;;;;;;;;;;;9.40;67.80;;;;;;5235104;26;85297;-42
2024/04/22 05:17:22;;;;;;;;;;;9.40;67.30;;;;;;5268169;26;87196;-44
2024/04/22 05:19:47;;;;;;;;;;;9.40;67.30;;;;;;5240850;26;85277;-43
2024/04/22 05:22:13;;;;;;;;;;;9.30;67.50;;;;;;5245933;26;85960;-43
2024/04/22 05:24:39;;;;;;;;;;;9.30;67.20;;;;;;5254429;26;85885;-45
2024/04/22 05:27:04;;;;;;;;;;;9.40;67.40;;;;;;5244864;26;86883;-43
2024/04/22 05:29:31;;;;;;;;;;;9.40;67.20;;;;;;5249832;26;86304;-42
2024/04/22 05:31:56;;;;;;;;;;;9.30;67.30;;;;;;5241006;26;86049;-43
2024/04/22 05:37:06;;;;;;;;;;;9.40;67.30;;;;;;5251116;26;85306;-42
2024/04/22 05:39:31;;;;;;;;;;;9.40;67.10;;;;;;5266592;26;85187;-45
2024/04/22 05:41:57;;;;;;;;;;;9.40;67.10;;;;;;5240748;26;86543;-43
2024/04/22 05:44:22;;;;;;;;;;;9.40;67.00;;;;;;5256446;26;86152;-44
2024/04/22 05:46:48;;;;;;;;;;;9.40;67.10;;;;;;5240969;26;85926;-45
2024/04/22 05:49:14;;;;;;;;;;;9.40;67.10;;;;;;5244384;26;85931;-43
2024/04/22 05:51:39;;;;;;;;;;;9.40;67.20;;;;;;5242491;26;87312;-43
2024/04/22 05:54:08;;;;;;;;;;;9.40;66.80;;;;;;5241401;26;86236;-44
2024/04/22 05:56:34;;;;;;;;;;;9.40;67.00;;;;;;5247295;26;87029;-43
2024/04/22 05:58:59;;;;;;;;;;;9.40;67.00;;;;;;5250189;26;85309;-42
2024/04/22 06:01:25;;;;;;;;;;;9.40;67.10;;;;;;5236654;26;86689;-44
2024/04/22 06:03:51;;;;;;;;;;;9.40;67.10;;;;;;5245678;26;87012;-45
2024/04/22 06:06:17;;;;;;;;;;;9.40;67.10;;;;;;5237597;26;86742;-44
2024/04/22 06:08:42;;;;;;;;;;;9.40;67.10;;;;;;5242749;26;86529;-44
2024/04/22 06:11:08;;;;;;;;;;;9.40;67.20;;;;;;5240434;26;87139;-43
2024/04/22 06:13:34;;;;;;;;;;;9.40;67.10;;;;;;5236095;26;87478;-45
2024/04/22 06:15:59;;;;;;;;;;;9.50;67.10;;;;;;5253343;26;87749;-44
2024/04/22 06:18:25;;;;;;;;;;;9.50;67.50;;;;;;5256299;26;86100;-45
2024/04/22 06:20:50;;;;;;;;;;;9.50;67.40;;;;;;5234409;26;86079;-44
2024/04/22 06:23:16;;;;;;;;;;;9.50;67.30;;;;;;5242575;26;86998;-44
2024/04/22 06:25:42;;;;;;;;;;;9.40;67.50;;;;;;5262305;26;86660;-44
2024/04/22 06:28:07;;;;;;;;;;;9.40;67.50;;;;;;5250317;26;86680;-43
2024/04/22 06:30:33;;;;;;;;;;;9.40;68.10;;;;;;5246974;26;85453;-44
2024/04/22 06:32:58;;;;;;;;;;;9.40;67.90;;;;;;5241935;26;86445;-45
2024/04/22 06:35:24;;;;;;;;;;;9.40;68.00;;;;;;5245888;26;86921;-45
2024/04/22 06:37:49;;;;;;;;;;;9.40;68.00;;;;;;5252813;26;85584;-44
2024/04/22 06:40:15;;;;;;;;;;;9.40;67.90;;;;;;5236246;26;86610;-45
2024/04/22 06:42:40;;;;;;;;;;;9.40;68.00;;;;;;5243417;26;85745;-44
2024/04/22 06:45:06;;;;;;;;;;;9.50;67.80;;;;;;5265827;26;85640;-43
2024/04/22 06:47:32;;;;;;;;;;;9.50;67.60;;;;;;5251251;26;85875;-46
2024/04/22 06:49:57;;;;;;;;;;;9.50;67.90;;;;;;5248135;26;86228;-45
2024/04/22 06:52:23;;;;;;;;;;;9.50;68.00;;;;;;5242542;26;85664;-45
2024/04/22 06:54:48;;;;;;;;;;;9.40;67.90;;;;;;5236513;26;87030;-44
2024/04/22 06:57:15;;;;;;;;;;;9.50;68.10;;;;;;5253587;26;86857;-45
2024/04/22 06:59:42;;;;;;;;;;;9.50;67.60;;;;;;5234778;26;85738;-44
2024/04/22 07:02:08;;;;;;;;;;;9.50;67.70;;;;;;5250736;26;86915;-43
2024/04/22 07:04:33;;;;;;;;;;;9.50;67.70;;;;;;5265327;26;86217;-43
2024/04/22 07:06:59;;;;;;;;;;;9.50;67.80;;;;;;5248952;26;87086;-45
2024/04/22 07:09:26;;;;;;;;;;;9.50;68.10;;;;;;5240595;26;86142;-44
2024/04/22 07:11:51;;;;;;;;;;;9.50;67.90;;;;;;5241325;26;85372;-44
2024/04/22 07:14:19;;;;;;;;;;;9.50;67.80;;;;;;5236761;26;87097;-46
2024/04/22 07:16:52;;;;;;;;;;;9.50;68.20;;;;;;5253541;26;85295;-44
2024/04/22 07:19:17;;;;;;;;;;;9.50;68.00;;;;;;5231544;26;86762;-46
2024/04/22 07:21:43;;;;;;;;;;;9.50;68.00;;;;;;5240217;26;85152;-45
2024/04/22 07:24:08;;;;;;;;;;;9.50;67.70;;;;;;5267885;26;85415;-46
2024/04/22 07:26:34;;;;;;;;;;;9.60;67.60;;;;;;5246014;26;85351;-45
2024/04/22 07:29:00;;;;;;;;;;;9.60;67.60;;;;;;5238828;26;86723;-46
2024/04/22 07:31:25;;;;;;;;;;;9.60;67.90;;;;;;5240972;26;86240;-45
2024/04/22 07:33:51;;;;;;;;;;;9.50;67.90;;;;;;5237350;26;86962;-45
2024/04/22 07:36:16;;;;;;;;;;;9.50;67.90;;;;;;5242818;26;85367;-45
2024/04/22 07:38:42;;;;;;;;;;;9.50;67.80;;;;;;5247884;26;86562;-46
2024/04/22 07:41:08;;;;;;;;;;;9.50;67.80;;;;;;5238802;26;86062;-44
2024/04/22 07:43:34;;;;;;;;;;;9.50;67.80;;;;;;5259372;26;85361;-45
2024/04/22 07:45:59;;;;;;;;;;;9.50;67.90;;;;;;5257390;26;86715;-46
2024/04/22 07:48:25;;;;;;;;;;;9.50;68.00;;;;;;5242461;26;87487;-45
2024/04/22 07:50:50;;;;;;;;;;;9.50;68.30;;;;;;5250887;26;86102;-46
2024/04/22 07:53:16;;;;;;;;;;;9.50;68.20;;;;;;5249348;26;86981;-45
2024/04/22 07:55:41;;;;;;;;;;;9.50;68.10;;;;;;5237963;26;87258;-44
2024/04/22 07:58:07;;;;;;;;;;;9.50;68.00;;;;;;5278184;26;85953;-45
2024/04/22 08:00:33;;;;;;;;;;;9.50;67.90;;;;;;5229727;26;87270;-44
2024/04/22 08:02:59;;;;;;;;;;;9.50;68.20;;;;;;5245237;26;85426;-46
2024/04/22 08:05:24;;;;;;;;;;;9.50;68.30;;;;;;5253307;26;87100;-44
2024/04/22 08:07:56;;;;;;;;;;;9.50;68.00;;;;;;5240880;26;86797;-44
2024/04/22 08:10:21;;;;;;;;;;;9.50;68.10;;;;;;5245241;26;84830;-45
2024/04/22 08:12:47;;;;;;;;;;;9.50;67.90;;;;;;5255595;26;85754;-46
2024/04/22 08:15:13;;;;;;;;;;;9.50;68.10;;;;;;5242650;26;87204;-44
2024/04/22 08:17:38;;;;;;;;;;;9.50;68.00;;;;;;5261744;26;86194;-44
2024/04/22 08:20:04;;;;;;;;;;;9.50;68.00;;;;;;5246473;26;87093;-45
2024/04/22 08:22:31;;;;;;;;;;;9.50;68.50;;;;;;5246530;26;85284;-45
2024/04/22 08:24:57;;;;;;;;;;;9.50;68.20;;;;;;5257361;26;87188;-45
2024/04/22 08:27:23;;;;;;;;;;;9.60;68.20;;;;;;5239585;26;87200;-46
2024/04/22 08:29:52;;;;;;;;;;;9.60;68.40;;;;;;5246808;26;85459;-45
2024/04/22 08:32:17;;;;;;;;;;;9.50;68.00;;;;;;5253114;26;85257;-46
2024/04/22 08:34:43;;;;;;;;;;;9.50;68.30;;;;;;5242073;26;84594;-47
2024/04/22 08:37:09;;;;;;;;;;;9.60;68.10;;;;;;5241802;26;85359;-45
2024/04/22 08:39:34;;;;;;;;;;;9.60;68.10;;;;;;5258730;26;85806;-45
2024/04/22 08:42:08;;;;;;;;;;;9.60;68.30;;;;;;5242928;26;86208;-45
2024/04/22 08:44:33;;;;;;;;;;;9.60;68.10;;;;;;5245897;26;86255;-46
2024/04/22 08:46:59;;;;;;;;;;;9.60;68.10;;;;;;5238429;26;86901;-46
2024/04/22 08:49:25;;;;;;;;;;;9.60;68.10;;;;;;5250242;26;85511;-45
2024/04/22 08:51:56;;;;;;;;;;;9.60;68.30;;;;;;5258473;26;86486;-46
2024/04/22 08:54:22;;;;;;;;;;;9.60;68.20;;;;;;5246118;26;87030;-45
2024/04/22 08:56:48;;;;;;;;;;;9.60;68.30;;;;;;5239670;26;86150;-47
2024/04/22 08:59:15;;;;;;;;;;;9.60;68.30;;;;;;5257447;26;86231;-46
2024/04/22 09:01:40;;;;;;;;;;;9.60;68.20;;;;;;5237339;26;85392;-44
2024/04/22 09:04:07;;;;;;;;;;;9.60;68.30;;;;;;5247294;26;86860;-46
2024/04/22 09:06:33;;;;;;;;;;;9.60;67.90;;;;;;5243059;26;86998;-45
2024/04/22 09:08:58;;;;;;;;;;;9.70;68.20;;;;;;5243166;26;85510;-47
2024/04/22 09:11:24;;;;;;;;;;;9.70;68.00;;;;;;5268089;26;85211;-46
2024/04/22 09:13:59;;;;;;;;;;;9.70;68.00;;;;;;5244641;26;86010;-46
2024/04/22 09:16:24;;;;;;;;;;;9.70;68.10;;;;;;5241036;26;86592;-47
2024/04/22 09:18:50;;;;;;;;;;;9.80;68.20;;;;;;5258082;26;85782;-47
2024/04/22 09:21:16;;;;;;;;;;;9.70;67.90;;;;;;5251790;26;85672;-46
2024/04/22 09:23:41;;;;;;;;;;;9.80;68.00;;;;;;5247924;26;86567;-46
2024/04/22 09:26:07;;;;;;;;;;;9.80;67.80;;;;;;5245528;26;86056;-45
2024/04/22 09:28:36;;;;;;;;;;;9.80;68.00;;;;;;5245864;26;85311;-46
2024/04/22 09:31:04;;;;;;;;;;;9.80;67.90;;;;;;5265130;26;86105;-46
2024/04/22 09:33:33;;;;;;;;;;;9.90;68.00;;;;;;5249002;26;87151;-46
2024/04/22 09:36:01;;;;;;;;;;;9.80;68.00;;;;;;5252219;26;85266;-47
2024/04/22 09:38:28;;;;;;;;;;;9.80;67.80;;;;;;5264795;26;85967;-46
2024/04/22 09:40:54;;;;;;;;;;;9.90;68.10;;;;;;5238194;26;85296;-45
2024/04/22 09:43:21;;;;;;;;;;;9.90;68.10;;;;;;5249336;26;86229;-45
2024/04/22 09:45:49;;;;;;;;;;;9.90;67.80;;;;;;5238429;26;86199;-47
2024/04/22 09:48:14;;;;;;;;;;;9.90;67.90;;;;;;5239384;26;84525;-45
2024/04/22 09:50:43;;;;;;;;;;;9.90;67.90;;;;;;5261755;26;85576;-47
2024/04/22 09:53:09;;;;;;;;;;;9.90;68.00;;;;;;5243144;26;86059;-46
2024/04/22 09:55:36;;;;;;;;;;;9.90;68.10;;;;;;5245780;26;86466;-46
2024/04/22 09:58:02;;;;;;;;;;;9.90;68.10;;;;;;5260751;26;86187;-46
2024/04/22 10:00:28;;;;;;;;;;;9.90;68.00;;;;;;5245350;26;86341;-46
2024/04/22 10:02:53;;;;;;;;;;;9.90;68.30;;;;;;5240699;26;85271;-47
2024/04/22 10:05:21;;;;;;;;;;;9.90;68.00;;;;;;5248277;26;85518;-47
2024/04/22 10:07:49;;;;;;;;;;;10.00;67.90;;;;;;5243691;26;85364;-46
2024/04/22 10:10:17;;;;;;;;;;;10.00;67.70;;;;;;5258171;26;85545;-45
2024/04/22 10:12:43;;;;;;;;;;;10.00;67.80;;;;;;5266829;26;86405;-47
2024/04/22 10:15:13;;;;;;;;;;;10.10;67.90;;;;;;5243365;26;85520;-45
2024/04/22 10:17:39;;;;;;;;;;;10.10;67.80;;;;;;5264052;26;86635;-47
2024/04/22 10:20:07;;;;;;;;;;;10.10;67.80;;;;;;5244525;26;86797;-47
2024/04/22 10:22:37;;;;;;;;;;;10.10;67.80;;;;;;5248725;26;86490;-47
2024/04/22 10:25:05;;;;;;;;;;;10.10;67.90;;;;;;5264286;26;85968;-47
2024/04/22 10:27:33;;;;;;;;;;;10.10;67.70;;;;;;5249205;26;85759;-47
2024/04/22 10:29:59;;;;;;;;;;;10.20;67.60;;;;;;5250917;26;85263;-47
2024/04/22 10:32:25;;;;;;;;;;;10.20;67.70;;;;;;5262944;26;87087;-47
2024/04/22 10:34:50;;;;;;;;;;;10.20;67.70;;;;;;5236352;26;86082;-46
2024/04/22 10:37:16;;;;;;;;;;;10.20;67.80;;;;;;5245805;26;85302;-48
2024/04/22 10:39:42;;;;;;;;;;;10.20;67.80;;;;;;5258860;26;86880;-47
2024/04/22 10:42:09;;;;;;;;;;;10.20;67.90;;;;;;5246556;26;85411;-46
2024/04/22 10:44:36;;;;;;;;;;;10.20;67.70;;;;;;5261253;26;87029;-46
2024/04/22 10:47:03;;;;;;;;;;;10.20;67.90;;;;;;5256674;26;85390;-47
2024/04/22 10:49:29;;;;;;;;;;;10.20;67.90;;;;;;5249212;26;86836;-48
2024/04/22 10:51:55;;;;;;;;;;;10.20;67.90;;;;;;5268571;26;85699;-46
2024/04/22 10:54:21;;;;;;;;;;;10.30;67.70;;;;;;5235372;26;85344;-45
2024/04/22 10:56:47;;;;;;;;;;;10.30;67.70;;;;;;5257184;26;86569;-46
2024/04/22 10:59:12;;;;;;;;;;;10.30;67.90;;;;;;5258930;26;85664;-48
2024/04/22 11:01:41;;;;;;;;;;;10.30;67.90;;;;;;5238027;26;84577;-48
2024/04/22 11:04:07;;;;;;;;;;;10.30;67.80;;;;;;5256586;26;86200;-45
2024/04/22 11:06:32;;;;;;;;;;;10.30;67.90;;;;;;5249258;26;85322;-48
2024/04/22 11:08:58;;;;;;;;;;;10.30;67.70;;;;;;5248253;26;86618;-47
2024/04/22 11:11:24;;;;;;;;;;;10.30;67.80;;;;;;5248248;26;85905;-45
2024/04/22 11:13:50;;;;;;;;;;;10.30;67.80;;;;;;5245884;26;85382;-45
2024/04/22 11:16:16;;;;;;;;;;;10.40;67.90;;;;;;5249785;26;85343;-47
2024/04/22 11:18:42;;;;;;;;;;;10.40;67.90;;;;;;5261745;26;86960;-47
2024/04/22 11:21:08;;;;;;;;;;;10.40;67.80;;;;;;5243220;26;85409;-46
2024/04/22 11:23:34;;;;;;;;;;;10.40;67.90;;;;;;5259157;26;86613;-46
2024/04/22 11:26:00;;;;;;;;;;;10.40;67.90;;;;;;5263190;26;84604;-46
2024/04/22 11:28:25;;;;;;;;;;;10.40;68.10;;;;;;5248054;26;85155;-47
2024/04/22 11:30:51;;;;;;;;;;;10.50;68.00;;;;;;5254872;26;87005;-47
2024/04/22 11:33:22;;;;;;;;;;;10.50;68.00;;;;;;5249545;26;86228;-47
2024/04/22 11:35:51;;;;;;;;;;;10.50;68.00;;;;;;5245862;26;86587;-47
2024/04/22 11:38:17;;;;;;;;;;;10.50;68.00;;;;;;5243744;26;86961;-47
2024/04/22 11:40:43;;;;;;;;;;;10.50;68.00;;;;;;5243652;26;85927;-49
2024/04/22 11:43:09;;;;;;;;;;;10.50;67.90;;;;;;5261064;26;86626;-47
2024/04/22 11:45:35;;;;;;;;;;;10.50;67.90;;;;;;5278817;26;87176;-47
2024/04/22 11:48:00;;;;;;;;;;;10.50;67.90;;;;;;5239470;26;86770;-47
2024/04/22 11:50:26;;;;;;;;;;;10.60;68.00;;;;;;5245478;26;86489;-48
2024/04/22 11:52:52;;;;;;;;;;;10.60;67.90;;;;;;5260483;26;85410;-45
2024/04/22 11:55:17;;;;;;;;;;;10.50;67.90;;;;;;5241632;26;86357;-47
2024/04/22 11:57:43;;;;;;;;;;;10.60;67.90;;;;;;5259711;26;87970;-47
2024/04/22 12:00:09;;;;;;;;;;;10.60;68.00;;;;;;5259169;26;85459;-46
2024/04/22 12:02:35;;;;;;;;;;;10.60;67.70;;;;;;5252214;26;85701;-46
2024/04/22 12:05:07;;;;;;;;;;;10.70;67.90;;;;;;5258015;26;85814;-47
2024/04/22 12:07:33;;;;;;;;;;;10.70;67.90;;;;;;5254560;26;85252;-47
2024/04/22 12:09:59;;;;;;;;;;;10.70;67.90;;;;;;5246417;26;86916;-47
2024/04/22 12:12:24;;;;;;;;;;;10.70;67.70;;;;;;5265595;26;85400;-48
2024/04/22 12:14:50;;;;;;;;;;;10.70;67.80;;;;;;5235254;26;85290;-46
2024/04/22 12:17:16;;;;;;;;;;;10.70;67.70;;;;;;5252445;26;87062;-46
2024/04/22 12:19:42;;;;;;;;;;;10.80;67.90;;;;;;5262300;26;86005;-47
2024/04/22 12:22:08;;;;;;;;;;;10.80;67.80;;;;;;5244670;26;88281;-46
2024/04/22 12:24:33;;;;;;;;;;;10.80;67.80;;;;;;5261346;26;86917;-46
2024/04/22 12:26:59;;;;;;;;;;;10.80;67.90;;;;;;5249272;26;85290;-48
2024/04/22 12:29:24;;;;;;;;;;;10.80;67.80;;;;;;5245219;26;86585;-45
2024/04/22 12:31:50;;;;;;;;;;;10.80;67.60;;;;;;5255953;26;86748;-45
2024/04/22 12:34:15;;;;;;;;;;;10.80;67.70;;;;;;5231616;26;86644;-47
2024/04/22 12:36:41;;;;;;;;;;;10.90;67.70;;;;;;5244841;26;87258;-48
2024/04/22 12:39:07;;;;;;;;;;;10.90;67.70;;;;;;5257338;26;84704;-47
2024/04/22 12:41:32;;;;;;;;;;;10.90;67.60;;;;;;5235655;26;87781;-48
2024/04/22 12:43:58;;;;;;;;;;;10.90;67.50;;;;;;5247226;26;85742;-48
2024/04/22 12:46:23;;;;;;;;;;;10.90;67.60;;;;;;5248622;26;86515;-47
2024/04/22 12:51:33;;;;;;;;;;;11.00;67.50;;;;;;5257903;26;85275;-47
2024/04/22 12:53:58;;;;;;;;;;;10.90;67.50;;;;;;5243265;26;86802;-47
2024/04/22 12:56:24;;;;;;;;;;;11.00;67.70;;;;;;5240011;26;86974;-46
2024/04/22 12:58:50;;;;;;;;;;;11.00;67.60;;;;;;5266551;26;85255;-50
2024/04/22 13:01:16;;;;;;;;;;;11.00;67.50;;;;;;5244851;26;86470;-47
2024/04/22 13:03:42;;;;;;;;;;;11.00;67.50;;;;;;5248168;26;85589;-47
2024/04/22 13:06:07;;;;;;;;;;;11.10;67.70;;;;;;5249729;26;85583;-45
2024/04/22 13:08:33;;;;;;;;;;;11.10;67.50;;;;;;5234918;26;86300;-47
2024/04/22 13:10:59;;;;;;;;;;;11.10;67.60;;;;;;5254021;26;88049;-48
2024/04/22 13:13:24;;;;;;;;;;;11.10;67.70;;;;;;5259240;26;85258;-47
2024/04/22 13:15:50;;;;;;;;;;;11.10;67.50;;;;;;5236740;26;87027;-47
2024/04/22 13:18:15;;;;;;;;;;;11.10;67.60;;;;;;5264649;26;85310;-46
2024/04/22 13:20:41;;;;;;;;;;;11.20;67.70;;;;;;5245144;26;86652;-46
2024/04/22 13:23:06;;;;;;;;;;;11.20;67.60;;;;;;5251624;26;85923;-46
2024/04/22 13:25:32;;;;;;;;;;;11.20;67.70;;;;;;5264097;26;85838;-48
2024/04/22 13:27:58;;;;;;;;;;;11.20;67.70;;;;;;5234085;26;86706;-45
2024/04/22 13:30:23;;;;;;;;;;;11.20;67.60;;;;;;5249280;26;86966;-48
2024/04/22 13:32:50;;;;;;;;;;;11.20;67.80;;;;;;5258607;26;85619;-47
2024/04/22 13:35:17;;;;;;;;;;;11.30;67.90;;;;;;5234243;26;86997;-47
2024/04/22 13:37:43;;;;;;;;;;;11.30;67.90;;;;;;5254829;26;86093;-46
2024/04/22 13:40:09;;;;;;;;;;;11.20;68.00;;;;;;5244746;26;87396;-48
2024/04/22 13:42:36;;;;;;;;;;;11.30;67.80;;;;;;5244894;26;87128;-48
2024/04/22 13:45:01;;;;;;;;;;;11.30;67.90;;;;;;5260833;26;85281;-48
2024/04/22 13:47:27;;;;;;;;;;;11.30;67.80;;;;;;5239876;26;86794;-46
2024/04/22 13:49:52;;;;;;;;;;;11.30;67.80;;;;;;5244951;26;86896;-46
2024/04/22 13:52:18;;;;;;;;;;;11.30;68.00;;;;;;5269936;26;84571;-48
2024/04/22 13:54:43;;;;;;;;;;;11.40;67.90;;;;;;5246042;26;85817;-48
2024/04/22 13:57:09;;;;;;;;;;;11.40;67.90;;;;;;5252888;26;85298;-47
2024/04/22 13:59:35;;;;;;;;;;;11.40;67.80;;;;;;5261804;26;86693;-47
2024/04/22 14:02:00;;;;;;;;;;;11.40;67.80;;;;;;5251998;26;85872;-46
2024/04/22 14:04:26;;;;;;;;;;;11.40;67.70;;;;;;5234783;26;86172;-48
2024/04/22 14:06:51;;;;;;;;;;;11.40;67.60;;;;;;5231658;26;86643;-48
2024/04/22 14:09:17;;;;;;;;;;;11.50;67.70;;;;;;5247083;26;87226;-46
2024/04/22 14:11:43;;;;;;;;;;;11.50;67.90;;;;;;5251927;26;85869;-47
2024/04/22 14:14:08;;;;;;;;;;;11.50;67.80;;;;;;5256520;26;86578;-45
2024/04/22 14:16:34;;;;;;;;;;;11.50;67.70;;;;;;5244828;26;86295;-47
2024/04/22 14:18:59;;;;;;;;;;;11.60;67.60;;;;;;5260545;26;85091;-47
2024/04/22 14:21:25;;;;;;;;;;;11.60;67.70;;;;;;5229965;26;86383;-46
2024/04/22 14:23:50;;;;;;;;;;;11.60;67.70;;;;;;5254279;26;87054;-47